createdAt,value
2018-11-13T00:01:23.538Z,94251.98
2018-11-13T00:03:51.716Z,94256.70
2018-11-13T00:06:19.220Z,94263.55
2018-11-13T00:08:46.751Z,94271.27
2018-11-13T00:11:14.251Z,94274.89
2018-11-13T00:13:41.799Z,94278.47
2018-11-13T00:16:09.298Z,94279.07
2018-11-13T00:18:36.934Z,94287.27
2018-11-13T00:21:04.896Z,94283.69
2018-11-13T00:23:32.374Z,94280.19
2018-11-13T00:25:59.977Z,94287.16
2018-11-13T00:28:27.575Z,94293.85
2018-11-13T00:30:55.067Z,94292.16
2018-11-13T00:33:22.784Z,94299.67
2018-11-13T00:35:50.271Z,94302.22
2018-11-13T00:38:17.769Z,94303.73
2018-11-13T00:40:45.419Z,94306.00
2018-11-13T00:43:13.078Z,94305.09
2018-11-13T00:45:40.612Z,94311.02
2018-11-13T00:48:08.408Z,94313.84
2018-11-13T00:50:36.129Z,94302.58
2018-11-13T00:53:03.799Z,94318.23
2018-11-13T00:55:31.993Z,94323.67
2018-11-13T00:57:59.667Z,94319.59
2018-11-13T01:00:27.211Z,94321.97
2018-11-13T01:02:54.690Z,94321.36
2018-11-13T01:05:22.389Z,94325.66
2018-11-13T01:07:51.077Z,94321.72
2018-11-13T01:10:19.295Z,94315.78
2018-11-13T01:12:47.475Z,94326.37
2018-11-13T01:15:17.244Z,94317.44
2018-11-13T01:17:45.541Z,94318.84
2018-11-13T01:20:13.835Z,94321.03
2018-11-13T01:22:41.462Z,94315.28
2018-11-13T01:25:10.255Z,94320.68
2018-11-13T01:27:37.933Z,94316.03
2018-11-13T01:30:06.346Z,94322.85
2018-11-13T01:32:34.609Z,94310.09
2018-11-13T01:35:02.305Z,94314.79
2018-11-13T01:37:29.796Z,94313.55
2018-11-13T01:39:57.574Z,94311.34
2018-11-13T01:42:25.066Z,94317.98
2018-11-13T01:44:52.674Z,94307.58
2018-11-13T01:47:20.194Z,94308.08
2018-11-13T01:49:48.326Z,94312.66
2018-11-13T01:52:15.838Z,94310.20
2018-11-13T01:54:43.465Z,94321.65
2018-11-13T01:57:11.163Z,94321.06
2018-11-13T01:59:38.791Z,94325.35
2018-11-13T02:02:06.491Z,94318.55
2018-11-13T02:04:34.166Z,94315.54
2018-11-13T02:07:01.736Z,94315.06
2018-11-13T02:09:29.269Z,94322.42
2018-11-13T02:11:56.751Z,94320.97
2018-11-13T02:14:24.247Z,94319.48
2018-11-13T02:16:51.733Z,94311.15
2018-11-13T02:19:19.249Z,94318.55
2018-11-13T02:21:46.885Z,94322.20
2018-11-13T02:24:14.390Z,94324.19
2018-11-13T02:26:42.047Z,94330.72
2018-11-13T02:29:09.626Z,94335.33
2018-11-13T02:31:37.108Z,94339.20
2018-11-13T02:34:04.775Z,94333.69
2018-11-13T02:36:32.279Z,94336.32
2018-11-13T02:38:59.798Z,94340.23
2018-11-13T02:41:27.283Z,94335.56
2018-11-13T02:43:54.765Z,94332.59
2018-11-13T02:46:22.477Z,94335.12
2018-11-13T02:48:50.044Z,94330.36
2018-11-13T02:51:17.518Z,94346.53
2018-11-13T02:53:45.082Z,94342.79
2018-11-13T02:56:12.849Z,94344.80
2018-11-13T02:58:40.458Z,94344.36
2018-11-13T03:01:07.959Z,94344.10
2018-11-13T03:03:35.442Z,94351.48
2018-11-13T03:06:02.943Z,94342.95
2018-11-13T03:08:30.432Z,94349.72
2018-11-13T03:10:57.914Z,94351.75
2018-11-13T03:13:25.467Z,94352.57
2018-11-13T03:15:53.397Z,94352.82
2018-11-13T03:18:20.885Z,94353.53
2018-11-13T03:20:48.491Z,94358.66
2018-11-13T03:23:16.036Z,94349.94
2018-11-13T03:25:43.543Z,94348.61
2018-11-13T03:28:11.191Z,94355.37
2018-11-13T03:30:38.659Z,94355.05
2018-11-13T03:33:06.221Z,94365.56
2018-11-13T03:35:33.832Z,94362.81
2018-11-13T03:38:01.402Z,94360.19
2018-11-13T03:40:28.901Z,94356.56
2018-11-13T03:42:56.931Z,94362.58
2018-11-13T03:45:24.517Z,94363.00
2018-11-13T03:47:52.011Z,94370.83
2018-11-13T03:50:20.762Z,94368.83
2018-11-13T03:52:48.386Z,94368.20
2018-11-13T03:55:16.531Z,94370.83
2018-11-13T03:57:44.867Z,94377.64
2018-11-13T04:00:13.899Z,94373.09
2018-11-13T04:02:41.610Z,94381.86
2018-11-13T04:05:10.711Z,94374.97
2018-11-13T04:07:43.413Z,94380.59
2018-11-13T04:10:13.010Z,94382.15
2018-11-13T04:12:41.230Z,94385.34
2018-11-13T04:15:10.175Z,94387.36
2018-11-13T04:17:38.139Z,94395.12
2018-11-13T04:20:06.566Z,94391.09
2018-11-13T04:22:34.044Z,94389.36
2018-11-13T04:25:01.655Z,94396.61
2018-11-13T04:27:29.722Z,94399.63
2018-11-13T04:29:57.222Z,94398.39
2018-11-13T04:32:24.711Z,94408.41
2018-11-13T04:34:52.355Z,94407.66
2018-11-13T04:37:20.040Z,94412.03
2018-11-13T04:39:47.743Z,94415.55
2018-11-13T04:42:15.495Z,94419.53
2018-11-13T04:44:42.991Z,94414.91
2018-11-13T04:47:10.544Z,94413.72
2018-11-13T04:49:38.435Z,94416.78
2018-11-13T04:52:06.106Z,94416.78
2018-11-13T04:54:33.627Z,94413.16
2018-11-13T04:57:01.323Z,94424.04
2018-11-13T04:59:28.926Z,94413.16
2018-11-13T05:01:56.511Z,94419.09
2018-11-13T05:04:24.010Z,94427.38
2018-11-13T05:06:51.662Z,94420.80
2018-11-13T05:09:19.259Z,94423.44
2018-11-13T05:11:47.925Z,94426.67
2018-11-13T05:14:15.398Z,94425.43
2018-11-13T05:16:43.070Z,94430.26
2018-11-13T05:19:10.711Z,94439.82
2018-11-13T05:21:38.303Z,94440.03
2018-11-13T05:24:06.165Z,94440.14
2018-11-13T05:26:33.782Z,94440.39
2018-11-13T05:29:01.445Z,94438.45
2018-11-13T05:31:28.979Z,94452.92
2018-11-13T05:33:56.608Z,94460.19
2018-11-13T05:36:24.195Z,94466.39
2018-11-13T05:38:51.854Z,94474.64
2018-11-13T05:41:19.350Z,94477.71
2018-11-13T05:43:47.134Z,94491.58
2018-11-13T05:46:14.730Z,94486.81
2018-11-13T05:48:42.193Z,94503.09
2018-11-13T05:51:09.769Z,94513.70
2018-11-13T05:53:37.375Z,94500.22
2018-11-13T05:56:05.105Z,94520.28
2018-11-13T05:58:32.756Z,94525.43
2018-11-13T06:01:00.268Z,94527.59
2018-11-13T06:03:27.757Z,94545.18
2018-11-13T06:05:55.369Z,94533.91
2018-11-13T06:08:22.890Z,94552.22
2018-11-13T06:10:50.518Z,94556.78
2018-11-13T06:13:18.117Z,94560.77
2018-11-13T06:15:45.614Z,94576.45
2018-11-13T06:18:13.253Z,94572.27
2018-11-13T06:20:40.749Z,94597.20
2018-11-13T06:23:08.309Z,94597.55
2018-11-13T06:25:35.735Z,94607.44
2018-11-13T06:28:03.422Z,94610.41
2018-11-13T06:30:31.129Z,94615.11
2018-11-13T06:32:58.604Z,94630.22
2018-11-13T06:35:26.094Z,94637.47
2018-11-13T06:37:53.615Z,94642.63
2018-11-13T06:40:21.130Z,94648.38
2018-11-13T06:42:48.617Z,94657.03
2018-11-13T06:45:17.622Z,94659.73
2018-11-13T06:47:46.151Z,94667.48
2018-11-13T06:50:13.827Z,94682.77
2018-11-13T06:52:42.061Z,94673.48
2018-11-13T06:55:15.015Z,94669.28
2018-11-13T06:57:42.535Z,94680.95
2018-11-13T07:00:10.361Z,94692.73
2018-11-13T07:02:38.529Z,94690.49
2018-11-13T07:05:08.046Z,94696.80
2018-11-13T07:07:35.684Z,94719.97
2018-11-13T07:10:03.594Z,94721.53
2018-11-13T07:12:31.303Z,94714.32
2018-11-13T07:14:58.914Z,94712.08
2018-11-13T07:17:26.471Z,94729.78
2018-11-13T07:19:53.998Z,94728.73
2018-11-13T07:22:21.462Z,94732.84
2018-11-13T07:24:48.934Z,94739.58
2018-11-13T07:27:16.530Z,94752.34
2018-11-13T07:29:44.015Z,94752.64
2018-11-13T07:32:11.485Z,94739.91
2018-11-13T07:34:39.004Z,94758.45
2018-11-13T07:37:06.514Z,94769.70
2018-11-13T07:39:34.055Z,94770.03
2018-11-13T07:42:01.563Z,94768.74
2018-11-13T07:44:29.050Z,94768.44
2018-11-13T07:46:56.762Z,94775.08
2018-11-13T07:49:24.800Z,94782.23
2018-11-13T07:51:52.280Z,94788.79
2018-11-13T07:54:19.764Z,94782.23
2018-11-13T07:56:47.263Z,94795.98
2018-11-13T07:59:14.750Z,94805.50
2018-11-13T08:01:43.030Z,94799.11
2018-11-13T08:04:10.597Z,94797.61
2018-11-13T08:06:38.920Z,94798.56
2018-11-13T08:09:06.929Z,94817.92
2018-11-13T08:11:34.422Z,94823.50
2018-11-13T08:14:02.000Z,94822.82
2018-11-13T08:16:29.563Z,94823.83
2018-11-13T08:18:57.127Z,94827.27
2018-11-13T08:21:24.657Z,94826.48
2018-11-13T08:23:52.341Z,94826.11
2018-11-13T08:26:19.889Z,94817.39
2018-11-13T08:28:47.361Z,94825.08
2018-11-13T08:31:14.851Z,94822.12
2018-11-13T08:33:42.469Z,94819.21
2018-11-13T08:36:10.061Z,94815.09
2018-11-13T08:38:37.588Z,94825.45
2018-11-13T08:41:05.313Z,94826.43
2018-11-13T08:43:32.771Z,94828.22
2018-11-13T08:46:00.254Z,94830.06
2018-11-13T08:48:27.738Z,94828.70
2018-11-13T08:50:55.386Z,94824.46
2018-11-13T08:53:23.048Z,94826.39
2018-11-13T08:55:50.743Z,94826.77
2018-11-13T08:58:18.312Z,94829.09
2018-11-13T09:00:45.762Z,94825.86
2018-11-13T09:03:13.271Z,94837.02
2018-11-13T09:05:40.838Z,94834.34
2018-11-13T09:08:08.378Z,94832.98
2018-11-13T09:10:35.919Z,94839.45
2018-11-13T09:13:03.435Z,94836.66
2018-11-13T09:15:30.949Z,94831.28
2018-11-13T09:17:58.554Z,94837.00
2018-11-13T09:20:26.079Z,94837.60
2018-11-13T09:22:53.605Z,94853.20
2018-11-13T09:25:21.314Z,94856.66
2018-11-13T09:27:48.831Z,94870.09
2018-11-13T09:30:17.884Z,94877.16
2018-11-13T09:32:45.710Z,94878.13
2018-11-13T09:35:14.370Z,94881.27
2018-11-13T09:37:42.038Z,94875.05
2018-11-13T09:40:11.433Z,94880.30
2018-11-13T09:42:39.619Z,94878.97
2018-11-13T09:45:07.506Z,94880.80
2018-11-13T09:47:35.042Z,94871.48
2018-11-13T09:50:02.580Z,94873.42
2018-11-13T09:52:30.109Z,94865.89
2018-11-13T09:54:58.042Z,94868.53
2018-11-13T09:57:25.618Z,94869.85
2018-11-13T09:59:53.261Z,94876.72
2018-11-13T10:02:21.595Z,94867.53
2018-11-13T10:04:49.455Z,94869.52
2018-11-13T10:07:16.114Z,94870.15
2018-11-13T10:09:43.903Z,94860.98
2018-11-13T10:12:11.414Z,94846.08
2018-11-13T10:14:38.898Z,94843.80
2018-11-13T10:17:06.507Z,94846.23
2018-11-13T10:19:34.044Z,94855.39
2018-11-13T10:22:01.547Z,94854.58
2018-11-13T10:24:29.033Z,94850.63
2018-11-13T10:26:56.648Z,94852.09
2018-11-13T10:29:24.100Z,94845.84
2018-11-13T10:31:51.765Z,94863.24
2018-11-13T10:34:19.311Z,94867.18
2018-11-13T10:36:46.862Z,94861.13
2018-11-13T10:39:14.399Z,94856.66
2018-11-13T10:41:41.970Z,94863.21
2018-11-13T10:44:09.490Z,94878.62
2018-11-13T10:46:37.099Z,94883.23
2018-11-13T10:49:05.032Z,94877.48
2018-11-13T10:51:32.479Z,94889.77
2018-11-13T10:53:59.973Z,94888.48
2018-11-13T10:56:27.560Z,94883.39
2018-11-13T10:58:54.993Z,94890.44
2018-11-13T11:01:28.250Z,94888.48
2018-11-13T11:04:01.412Z,94882.57
2018-11-13T11:06:31.747Z,94889.28
2018-11-13T11:08:59.371Z,94889.98
2018-11-13T11:11:26.947Z,94883.58
2018-11-13T11:13:54.480Z,94887.50
2018-11-13T11:16:21.929Z,94883.23
2018-11-13T11:18:49.720Z,94886.52
2018-11-13T11:21:17.167Z,94891.41
2018-11-13T11:23:44.793Z,94898.60
2018-11-13T11:26:12.275Z,94901.23
2018-11-13T11:28:39.758Z,94896.30
2018-11-13T11:31:07.627Z,94896.81
2018-11-13T11:33:35.067Z,94901.91
2018-11-13T11:36:03.229Z,94896.82
2018-11-13T11:38:31.133Z,94895.05
2018-11-13T11:40:58.581Z,94890.44
2018-11-13T11:43:26.224Z,94885.86
2018-11-13T11:45:53.859Z,94897.02
2018-11-13T11:48:21.479Z,94910.14
2018-11-13T11:50:49.115Z,94906.84
2018-11-13T11:53:16.604Z,94916.05
2018-11-13T11:55:44.144Z,94915.70
2018-11-13T11:58:11.677Z,94919.46
2018-11-13T12:00:39.238Z,94912.44
2018-11-13T12:03:06.823Z,94908.49
2018-11-13T12:05:34.400Z,94909.95
2018-11-13T12:08:01.889Z,94906.82
2018-11-13T12:10:29.371Z,94893.70
2018-11-13T12:12:56.957Z,94903.50
2018-11-13T12:15:24.513Z,94906.81
2018-11-13T12:17:52.038Z,94911.42
2018-11-13T12:20:19.533Z,94907.45
2018-11-13T12:22:47.051Z,94924.52
2018-11-13T12:25:16.593Z,94924.50
2018-11-13T12:27:44.147Z,94924.81
2018-11-13T12:30:13.394Z,94935.81
2018-11-13T12:32:41.389Z,94930.41
2018-11-13T12:35:09.834Z,94931.40
2018-11-13T12:37:37.951Z,94930.59
2018-11-13T12:40:06.683Z,94940.61
2018-11-13T12:42:34.223Z,94933.56
2018-11-13T12:45:01.977Z,94919.61
2018-11-13T12:47:29.459Z,94940.93
2018-11-13T12:49:57.579Z,94939.28
2018-11-13T12:52:25.059Z,94929.80
2018-11-13T12:54:52.766Z,94922.23
2018-11-13T12:57:20.275Z,94931.53
2018-11-13T12:59:47.867Z,94934.48
2018-11-13T13:02:15.621Z,94932.98
2018-11-13T13:04:42.970Z,94923.42
2018-11-13T13:07:10.543Z,94941.44
2018-11-13T13:09:38.420Z,94946.06
2018-11-13T13:12:07.168Z,94945.23
2018-11-13T13:14:34.700Z,94948.02
2018-11-13T13:17:02.290Z,94955.29
2018-11-13T13:19:29.816Z,94952.98
2018-11-13T13:21:57.328Z,94950.34
2018-11-13T13:24:24.926Z,94947.55
2018-11-13T13:26:52.411Z,94949.01
2018-11-13T13:29:19.890Z,94949.03
2018-11-13T13:31:48.231Z,94948.35
2018-11-13T13:34:15.740Z,94953.63
2018-11-13T13:36:43.328Z,94962.14
2018-11-13T13:39:10.895Z,94961.52
2018-11-13T13:41:38.558Z,94968.39
2018-11-13T13:44:06.434Z,94970.33
2018-11-13T13:46:34.124Z,94981.20
2018-11-13T13:49:02.055Z,94980.09
2018-11-13T13:51:29.563Z,94974.03
2018-11-13T13:53:57.316Z,94971.25
2018-11-13T13:56:24.751Z,94985.36
2018-11-13T13:58:52.304Z,94984.50
2018-11-13T14:01:19.801Z,94993.73
2018-11-13T14:03:47.972Z,94988.65
2018-11-13T14:06:14.982Z,94995.00
2018-11-13T14:08:42.589Z,95000.59
2018-11-13T14:11:10.138Z,95003.84
2018-11-13T14:13:37.652Z,95005.18
2018-11-13T14:16:05.432Z,95007.14
2018-11-13T14:18:33.002Z,95013.06
2018-11-13T14:21:00.931Z,95007.97
2018-11-13T14:23:28.383Z,95013.38
2018-11-13T14:25:55.883Z,95015.33
2018-11-13T14:28:23.430Z,95019.95
2018-11-13T14:30:50.915Z,95024.87
2018-11-13T14:33:18.527Z,95028.80
2018-11-13T14:35:46.087Z,95032.08
2018-11-13T14:38:13.566Z,95029.13
2018-11-13T14:40:44.356Z,95032.43
2018-11-13T14:43:12.966Z,95020.25
2018-11-13T14:45:40.559Z,95021.34
2018-11-13T14:48:08.468Z,95029.13
2018-11-13T14:50:36.322Z,95028.16
2018-11-13T14:53:04.446Z,95035.02
2018-11-13T14:55:34.330Z,95040.27
2018-11-13T14:58:02.716Z,95034.70
2018-11-13T15:00:32.404Z,95032.43
2018-11-13T15:03:00.800Z,95035.37
2018-11-13T15:05:29.104Z,95035.39
2018-11-13T15:07:58.135Z,95033.72
2018-11-13T15:10:29.723Z,95038.02
2018-11-13T15:12:57.238Z,95037.69
2018-11-13T15:15:24.779Z,95044.89
2018-11-13T15:17:52.422Z,95045.91
2018-11-13T15:20:19.996Z,95049.52
2018-11-13T15:22:47.638Z,95047.89
2018-11-13T15:25:15.518Z,95054.95
2018-11-13T15:27:44.074Z,95059.05
2018-11-13T15:30:14.392Z,95057.07
2018-11-13T15:32:42.230Z,95061.31
2018-11-13T15:35:11.168Z,95067.88
2018-11-13T15:37:38.760Z,95068.52
2018-11-13T15:40:07.979Z,95068.19
2018-11-13T15:42:35.903Z,95075.55
2018-11-13T15:45:03.736Z,95076.06
2018-11-13T15:47:31.273Z,95078.20
2018-11-13T15:49:59.266Z,95074.35
2018-11-13T15:52:27.141Z,95077.83
2018-11-13T15:54:54.710Z,95082.70
2018-11-13T15:57:22.219Z,95074.65
2018-11-13T15:59:49.756Z,95081.84
2018-11-13T16:02:17.286Z,95080.05
2018-11-13T16:04:44.818Z,95085.44
2018-11-13T16:07:13.359Z,95082.81
2018-11-13T16:09:40.885Z,95085.77
2018-11-13T16:12:08.515Z,95085.14
2018-11-13T16:14:36.076Z,95085.29
2018-11-13T16:17:03.774Z,95091.98
2018-11-13T16:19:31.398Z,95102.02
2018-11-13T16:21:59.101Z,95103.59
2018-11-13T16:24:26.637Z,95103.19
2018-11-13T16:26:54.439Z,95100.20
2018-11-13T16:29:22.078Z,95096.74
2018-11-13T16:31:49.559Z,95099.84
2018-11-13T16:34:17.138Z,95106.69
2018-11-13T16:36:44.781Z,95100.78
2018-11-13T16:39:14.136Z,95105.70
2018-11-13T16:41:41.854Z,95107.59
2018-11-13T16:44:09.652Z,95110.83
2018-11-13T16:46:37.324Z,95118.36
2018-11-13T16:49:05.824Z,95115.34
2018-11-13T16:51:33.331Z,95119.14
2018-11-13T16:54:04.104Z,95120.45
2018-11-13T16:56:36.145Z,95120.42
2018-11-13T16:59:04.398Z,95121.95
2018-11-13T17:01:32.020Z,95119.38
2018-11-13T17:03:59.522Z,95118.58
2018-11-13T17:06:27.147Z,95123.55
2018-11-13T17:08:54.703Z,95121.91
2018-11-13T17:11:22.385Z,95122.51
2018-11-13T17:13:49.876Z,95120.73
2018-11-13T17:16:17.446Z,95130.09
2018-11-13T17:18:44.943Z,95138.06
2018-11-13T17:21:12.461Z,95144.50
2018-11-13T17:23:40.482Z,95139.72
2018-11-13T17:26:07.916Z,95140.83
2018-11-13T17:28:35.416Z,95140.83
2018-11-13T17:31:02.991Z,95144.57
2018-11-13T17:33:30.612Z,95152.48
2018-11-13T17:35:58.138Z,95146.33
2018-11-13T17:38:25.641Z,95148.49
2018-11-13T17:40:53.166Z,95146.05
2018-11-13T17:43:20.695Z,95144.34
2018-11-13T17:45:48.334Z,95152.38
2018-11-13T17:48:15.908Z,95161.87
2018-11-13T17:50:43.553Z,95154.41
2018-11-13T17:53:11.589Z,95154.92
2018-11-13T17:55:39.645Z,95163.28
2018-11-13T17:58:08.735Z,95163.27
2018-11-13T18:00:38.650Z,95166.84
2018-11-13T18:03:06.745Z,95170.08
2018-11-13T18:05:34.767Z,95177.04
2018-11-13T18:08:02.964Z,95171.08
2018-11-13T18:10:31.566Z,95175.47
2018-11-13T18:12:59.112Z,95174.91
2018-11-13T18:15:27.568Z,95184.59
2018-11-13T18:17:55.177Z,95178.42
2018-11-13T18:20:24.166Z,95174.99
2018-11-13T18:22:51.817Z,95168.94
2018-11-13T18:25:19.488Z,95171.59
2018-11-13T18:27:48.440Z,95169.85
2018-11-13T18:30:17.876Z,95178.25
2018-11-13T18:32:45.934Z,95179.89
2018-11-13T18:35:14.934Z,95175.37
2018-11-13T18:37:42.715Z,95172.75
2018-11-13T18:40:11.629Z,95175.66
2018-11-13T18:42:39.557Z,95181.39
2018-11-13T18:45:08.424Z,95178.64
2018-11-13T18:47:36.374Z,95182.02
2018-11-13T18:50:04.979Z,95182.81
2018-11-13T18:52:32.804Z,95184.41
2018-11-13T18:55:00.721Z,95178.58
2018-11-13T18:57:28.239Z,95183.09
2018-11-13T18:59:56.344Z,95180.20
2018-11-13T19:02:24.297Z,95182.69
2018-11-13T19:04:52.304Z,95179.13
2018-11-13T19:07:20.120Z,95173.21
2018-11-13T19:09:47.725Z,95181.44
2018-11-13T19:12:16.393Z,95178.01
2018-11-13T19:14:44.168Z,95177.19
2018-11-13T19:17:11.880Z,95172.06
2018-11-13T19:19:39.637Z,95170.41
2018-11-13T19:22:07.239Z,95171.97
2018-11-13T19:24:34.911Z,95174.35
2018-11-13T19:27:02.932Z,95172.03
2018-11-13T19:29:30.879Z,95173.21
2018-11-13T19:31:58.370Z,95176.77
2018-11-13T19:34:25.864Z,95167.42
2018-11-13T19:36:53.410Z,95174.28
2018-11-13T19:39:21.053Z,95179.02
2018-11-13T19:41:48.651Z,95178.13
2018-11-13T19:44:16.280Z,95176.19
2018-11-13T19:46:43.879Z,95174.57
2018-11-13T19:49:11.472Z,95175.78
2018-11-13T19:51:39.692Z,95182.88
2018-11-13T19:54:07.326Z,95187.38
2018-11-13T19:56:34.867Z,95184.42
2018-11-13T19:59:02.435Z,95184.77
2018-11-13T20:01:30.048Z,95179.00
2018-11-13T20:03:57.737Z,95180.80
2018-11-13T20:06:25.426Z,95183.30
2018-11-13T20:08:53.162Z,95185.90
2018-11-13T20:11:20.700Z,95192.69
2018-11-13T20:13:48.234Z,95194.44
2018-11-13T20:16:15.859Z,95188.05
2018-11-13T20:18:43.364Z,95194.72
2018-11-13T20:21:11.139Z,95189.95
2018-11-13T20:23:38.668Z,95194.51
2018-11-13T20:26:06.199Z,95199.72
2018-11-13T20:28:33.789Z,95203.10
2018-11-13T20:31:01.454Z,95193.80
2018-11-13T20:33:29.022Z,95198.25
2018-11-13T20:35:56.843Z,95198.92
2018-11-13T20:38:24.374Z,95193.47
2018-11-13T20:40:51.935Z,95198.44
2018-11-13T20:43:19.594Z,95199.20
2018-11-13T20:45:47.214Z,95198.41
2018-11-13T20:48:14.833Z,95198.06
2018-11-13T20:50:42.370Z,95198.06
2018-11-13T20:53:09.889Z,95195.55
2018-11-13T20:55:37.470Z,95195.73
2018-11-13T20:58:05.585Z,95194.67
2018-11-13T21:00:34.303Z,95194.33
2018-11-13T21:03:02.049Z,95196.30
2018-11-13T21:05:29.592Z,95201.98
2018-11-13T21:07:57.332Z,95202.33
2018-11-13T21:10:33.262Z,95205.09
2018-11-13T21:13:01.629Z,95205.09
2018-11-13T21:15:29.150Z,95211.77
2018-11-13T21:17:56.792Z,95208.09
2018-11-13T21:20:24.717Z,95209.94
2018-11-13T21:22:51.891Z,95217.75
2018-11-13T21:25:21.204Z,95210.62
2018-11-13T21:27:49.450Z,95214.91
2018-11-13T21:30:18.302Z,95207.30
2018-11-13T21:32:46.466Z,95208.80
2018-11-13T21:35:14.366Z,95203.32
2018-11-13T21:37:43.163Z,95206.62
2018-11-13T21:40:12.644Z,95204.02
2018-11-13T21:42:40.256Z,95203.55
2018-11-13T21:45:08.204Z,95204.73
2018-11-13T21:47:36.543Z,95199.41
2018-11-13T21:50:04.846Z,95198.19
2018-11-13T21:52:32.391Z,95197.75
2018-11-13T21:55:00.190Z,95191.84
2018-11-13T21:57:27.704Z,95195.66
2018-11-13T21:59:55.183Z,95197.93
2018-11-13T22:02:22.723Z,95192.41
2018-11-13T22:04:50.475Z,95193.08
2018-11-13T22:07:17.914Z,95193.55
2018-11-13T22:09:45.500Z,95191.19
2018-11-13T22:12:13.164Z,95194.76
2018-11-13T22:14:40.696Z,95195.76
2018-11-13T22:17:08.231Z,95189.61
2018-11-13T22:19:35.778Z,95190.58
2018-11-13T22:22:03.412Z,95190.45
2018-11-13T22:24:30.952Z,95192.37
2018-11-13T22:26:58.521Z,95195.42
2018-11-13T22:29:26.345Z,95191.66
2018-11-13T22:31:54.471Z,95188.61
2018-11-13T22:34:21.997Z,95186.50
2018-11-13T22:36:49.915Z,95187.33
2018-11-13T22:39:17.491Z,95183.94
2018-11-13T22:41:45.117Z,95184.07
2018-11-13T22:44:12.768Z,95186.21
2018-11-13T22:46:40.380Z,95186.57
2018-11-13T22:49:08.286Z,95189.05
2018-11-13T22:51:35.790Z,95188.94
2018-11-13T22:54:03.767Z,95190.72
2018-11-13T22:56:31.357Z,95190.97
2018-11-13T22:58:58.957Z,95188.27
2018-11-13T23:01:26.470Z,95186.72
2018-11-13T23:03:53.979Z,95183.77
2018-11-13T23:06:22.103Z,95186.25
2018-11-13T23:08:49.597Z,95184.95
2018-11-13T23:11:17.190Z,95179.17
2018-11-13T23:13:44.719Z,95188.05
2018-11-13T23:16:12.255Z,95175.29
2018-11-13T23:18:40.887Z,95174.83
2018-11-13T23:21:08.490Z,95168.34
2018-11-13T23:23:36.099Z,95178.04
2018-11-13T23:26:03.632Z,95169.28
2018-11-13T23:28:31.430Z,95171.30
2018-11-13T23:30:59.074Z,95162.58
2018-11-13T23:33:26.597Z,95167.41
2018-11-13T23:35:54.254Z,95161.97
2018-11-13T23:38:21.759Z,95161.75
2018-11-13T23:40:49.314Z,95158.33
2018-11-13T23:43:17.097Z,95156.20
2018-11-13T23:45:44.722Z,95155.27
2018-11-13T23:48:12.273Z,95151.48
2018-11-13T23:50:39.838Z,95140.75
2018-11-13T23:53:07.399Z,95139.92
2018-11-13T23:55:35.092Z,95138.77
2018-11-13T23:58:02.614Z,95141.11
